Time;durP1;ratioP1;P1;durP2;ratioP2;P2;SDS_P1;SDS_P2;PMS_P1;PMS_P2;Temp;Humidity;BMP_temperature;BMP_pressure;BME280_temperature;BME280_humidity;BME280_pressure;Samples;Min_cycle;Max_cycle;Signal;HPM_P1;HPM_P2
2023/01/25 00:02:39;;;;;;;;;;;;;;;1.22;100;103942.5;;;;-74
2023/01/25 00:22:11;;;;;;;;;;;;;;;;;;;;;
2023/01/25 00:30:13;;;;;;;;;;;;;;;1.06;100;103930.2;;;;-76
2023/01/25 00:35:05;;;;;;;;;;;;;;;1.03;100;103926.2;;;;-75
2023/01/25 00:39:57;;;;;;;;;;;;;;;;;;;;;
2023/01/25 00:49:15;;;;;;;;;;;;;;;;;;;;;
2023/01/25 00:50:01;;;;;;;;;;;;;;;;;;;;;
2023/01/25 00:54:43;;;;;;;;;;;;;;;0.98;100;103903.1;;;;-76
2023/01/25 01:00:07;;;;;;;;;;;;;;;0.98;100;103899.5;;;;-74
2023/01/25 01:06:11;;;;;;;;;;;;;;;1.06;100;103891.5;;;;-74
2023/01/25 01:11:22;;;;;;;;;;;;;;;0.96;100;103892.5;;;;-75
2023/01/25 01:20:58;;;;;;;;;;;;;;;0.94;100;103892.1;;;;-76
2023/01/25 01:25:42;;;;;;;;;;;;;;;0.91;100;103888.4;;;;-76
2023/01/25 01:46:50;;;;;;;;;;;;;;;0.87;100;103882.7;;;;-75
2023/01/25 01:49:26;;;;;;;24.9;9.4;;;;;;;;;;;;;-74
2023/01/25 01:51:38;;;;;;;;;;;;;;;0.88;100;103881.5;;;;-76
2023/01/25 01:57:43;;;;;;;;;;;;;;;0.95;100;103872.8;;;;-74
2023/01/25 02:00:12;;;;;;;;;;;;;;;0.87;100;103876.5;;;;-75
2023/01/25 02:05:06;;;;;;;;;;;;;;;0.83;100;103875.4;;;;-76
2023/01/25 02:15:06;;;;;;;;;;;;;;;0.81;100;103866.8;;;;-75
2023/01/25 02:19:13;;;;;;;23.6;9.2;;;;;;;;;;;;;-74
2023/01/25 02:20:14;;;;;;;;;;;;;;;0.8;100;103866.3;;;;-74
2023/01/25 02:25:06;;;;;;;;;;;;;;;0.79;100;103855.2;;;;-75
2023/01/25 02:30:23;;;;;;;;;;;;;;;0.78;100;103855.6;;;;-73
2023/01/25 02:35:09;;;;;;;;;;;;;;;0.78;100;103854.5;;;;-76
2023/01/25 02:40:08;;;;;;;;;;;;;;;0.74;100;103847.8;;;;-75
2023/01/25 02:44:56;;;;;;;;;;;;;;;0.73;100;103841.4;;;;-75
2023/01/25 02:48:51;;;;;;;23.5;9.8;;;;;;;;;;;;;-74
2023/01/25 02:49:58;;;;;;;;;;;;;;;0.76;100;103838.5;;;;-76
2023/01/25 02:55:01;;;;;;;;;;;;;;;0.74;100;103830;;;;-77
2023/01/25 02:59:55;;;;;;;;;;;;;;;0.75;100;103825;;;;-76
2023/01/25 03:04:55;;;;;;;;;;;;;;;0.73;100;103822.4;;;;-75
2023/01/25 03:09:56;;;;;;;;;;;;;;;0.74;100;103817.8;;;;-75
2023/01/25 03:14:55;;;;;;;;;;;;;;;0.72;100;103821.4;;;;-75
2023/01/25 03:18:58;;;;;;;24;10;;;;;;;;;;;;;-76
2023/01/25 03:20:15;;;;;;;;;;;;;;;0.73;100;103818.8;;;;-75
2023/01/25 03:24:56;;;;;;;;;;;;;;;0.73;100;103814.9;;;;-75
2023/01/25 03:29:57;;;;;;;;;;;;;;;0.73;100;103812.6;;;;-75
2023/01/25 03:34:58;;;;;;;;;;;;;;;0.74;100;103803;;;;-75
2023/01/25 03:39:55;;;;;;;;;;;;;;;0.72;100;103797.4;;;;-76
2023/01/25 03:44:57;;;;;;;;;;;;;;;0.73;100;103785.3;;;;-74
2023/01/25 03:48:50;;;;;;;26.9;10.4;;;;;;;;;;;;;-75
2023/01/25 03:52:11;;;;;;;;;;;;;;;0.83;100;103776.4;;;;-74
2023/01/25 03:54:48;;;;;;;;;;;;;;;0.72;100;103779.9;;;;-76
2023/01/25 03:59:50;;;;;;;;;;;;;;;0.71;100;103775.1;;;;-74
2023/01/25 04:04:44;;;;;;;;;;;;;;;0.72;100;103766.9;;;;-75
2023/01/25 04:09:50;;;;;;;;;;;;;;;0.71;100;103765.5;;;;-74
2023/01/25 04:14:53;;;;;;;;;;;;;;;0.71;100;103758.4;;;;-75
2023/01/25 04:18:56;;;;;;;24.8;10.1;;;;;;;;;;;;;-74
2023/01/25 04:19:50;;;;;;;;;;;;;;;0.69;100;103755;;;;-75
2023/01/25 04:24:48;;;;;;;;;;;;;;;0.69;100;103751.3;;;;-75
2023/01/25 04:29:46;;;;;;;;;;;;;;;0.68;100;103744.1;;;;-74
2023/01/25 04:34:43;;;;;;;;;;;;;;;0.69;100;103742.3;;;;-75
2023/01/25 04:39:43;;;;;;;;;;;;;;;0.67;100;103739.6;;;;-75
2023/01/25 04:44:43;;;;;;;;;;;;;;;0.7;100;103743;;;;-75
2023/01/25 04:48:48;;;;;;;26.6;10.6;;;;;;;;;;;;;-76
2023/01/25 04:49:53;;;;;;;;;;;;;;;0.68;100;103740.8;;;;-76
2023/01/25 04:54:44;;;;;;;;;;;;;;;0.67;100;103735.7;;;;-75
2023/01/25 04:59:54;;;;;;;;;;;;;;;0.67;100;103731.3;;;;-75
2023/01/25 05:04:59;;;;;;;;;;;;;;;0.68;100;103733.7;;;;-75
2023/01/25 05:10:13;;;;;;;;;;;;;;;0.74;100;103727.6;;;;-75
2023/01/25 05:19:00;;;;;;;29.2;10.7;;;;;;;;;;;;;-75
2023/01/25 05:29:28;;;;;;;;;;;;;;;0.63;100;103726.9;;;;-75
2023/01/25 05:34:35;;;;;;;;;;;;;;;0.62;100;103723.8;;;;-75
2023/01/25 05:38:26;;;;;;;;;;;;;;;0.67;100;103721.1;;;;-76
2023/01/25 05:47:57;;;;;;;;;;;;;;;0.61;100;103735.6;;;;-75
2023/01/25 05:52:48;;;;;;;;;;;;;;;0.58;100;103744.4;;;;-75
2023/01/25 05:57:49;;;;;;;;;;;;;;;0.58;100;103742.7;;;;-75
2023/01/25 06:02:47;;;;;;;;;;;;;;;0.56;100;103738.3;;;;-76
2023/01/25 06:07:54;;;;;;;;;;;;;;;0.58;100;103736.5;;;;-74
2023/01/25 06:15:01;;;;;;;;;;;;;;;0.63;100;103736.1;;;;-74
2023/01/25 06:25:00;;;;;;;;;;;;;;;0.6;100;103721;;;;-76
2023/01/25 06:27:38;;;;;;;;;;;;;;;0.53;100;103727.4;;;;-76
2023/01/25 06:32:49;;;;;;;;;;;;;;;0.53;100;103729.8;;;;-75
2023/01/25 06:37:27;;;;;;;;;;;;;;;0.52;100;103727.2;;;;-76
2023/01/25 06:42:29;;;;;;;;;;;;;;;0.5;100;103718.4;;;;-76
2023/01/25 06:47:27;;;;;;;;;;;;;;;0.48;100;103721.1;;;;-73
2023/01/25 06:48:46;;;;;;;30.3;11.3;;;;;;;;;;;;;-75
2023/01/25 06:52:24;;;;;;;;;;;;;;;0.47;100;103713.6;;;;-75
2023/01/25 06:57:25;;;;;;;;;;;;;;;0.47;100;103719.6;;;;-76
2023/01/25 07:02:29;;;;;;;;;;;;;;;0.45;100;103714;;;;-74
2023/01/25 07:12:26;;;;;;;;;;;;;;;0.42;100;103717.8;;;;-74
2023/01/25 07:17:25;;;;;;;;;;;;;;;0.41;100;103709.8;;;;-75
2023/01/25 07:18:45;;;;;;;32.1;11.2;;;;;;;;;;;;;-75
2023/01/25 07:22:41;;;;;;;;;;;;;;;0.38;100;103703.1;;;;-74
2023/01/25 07:27:28;;;;;;;;;;;;;;;0.38;100;103697.7;;;;-74
2023/01/25 07:32:25;;;;;;;;;;;;;;;0.38;100;103690;;;;-75
2023/01/25 07:37:26;;;;;;;;;;;;;;;0.39;100;103691.5;;;;-75
2023/01/25 07:42:25;;;;;;;;;;;;;;;0.37;100;103681.4;;;;-74
2023/01/25 07:47:36;;;;;;;;;;;;;;;0.35;100;103668.7;;;;-73
2023/01/25 07:49:07;;;;;;;33.3;10.7;;;;;;;;;;;;;-76
2023/01/25 07:52:42;;;;;;;;;;;;;;;0.37;100;103673.7;;;;-75
2023/01/25 07:57:35;;;;;;;;;;;;;;;0.37;100;103674.8;;;;-76
2023/01/25 08:00:08;;;;;;;;;;;;;;;0.44;100;103677;;;;-75
2023/01/25 08:04:01;;;;;;;;;;;;;;;0.36;100;103673.1;;;;-75
2023/01/25 08:18:41;;;;;;;;;;;;;;;0.34;100;103669.2;;;;-75
2023/01/25 08:19:18;;;;;;;;;;;;;;;0.42;100;103669;;;;-76
2023/01/25 08:24:12;;;;;;;;;;;;;;;0.34;100;103663.1;;;;-76
2023/01/25 08:29:10;;;;;;;;;;;;;;;0.37;100;103659.8;;;;-74
2023/01/25 08:34:10;;;;;;;;;;;;;;;0.38;100;103656.9;;;;-76
2023/01/25 08:39:13;;;;;;;;;;;;;;;0.36;100;103652.4;;;;-75
2023/01/25 08:44:12;;;;;;;;;;;;;;;0.39;100;103643;;;;-75
2023/01/25 08:48:43;;;;;;;32.2;11.5;;;;;;;;;;;;;-75
2023/01/25 08:49:09;;;;;;;;;;;;;;;0.39;100;103646.4;;;;-76
2023/01/25 08:54:10;;;;;;;;;;;;;;;0.37;100;103646;;;;-75
2023/01/25 08:59:10;;;;;;;;;;;;;;;0.38;100;103633;;;;-76
2023/01/25 09:04:27;;;;;;;;;;;;;;;0.42;100;103631.7;;;;-74
2023/01/25 09:09:11;;;;;;;;;;;;;;;0.39;100;103630.1;;;;-76
2023/01/25 09:14:09;;;;;;;;;;;;;;;0.41;100;103624.7;;;;-74
2023/01/25 09:18:43;;;;;;;29.6;11.1;;;;;;;;;;;;;-75
2023/01/25 09:19:10;;;;;;;;;;;;;;;0.43;100;103628.9;;;;-74
2023/01/25 09:24:10;;;;;;;;;;;;;;;0.45;100;103615.1;;;;-74
2023/01/25 09:29:10;;;;;;;;;;;;;;;0.46;100;103611.2;;;;-75
2023/01/25 09:34:12;;;;;;;;;;;;;;;0.5;100;103609.2;;;;-75
2023/01/25 09:39:12;;;;;;;;;;;;;;;0.5;100;103605.5;;;;-75
2023/01/25 09:44:24;;;;;;;;;;;;;;;0.54;100;103595.6;;;;-75
2023/01/25 09:48:44;;;;;;;29.3;10.7;;;;;;;;;;;;;-76
2023/01/25 09:49:20;;;;;;;;;;;;;;;0.57;100;103591.7;;;;-75
2023/01/25 09:54:40;;;;;;;;;;;;;;;0.59;100;103580.3;;;;-75
2023/01/25 09:59:21;;;;;;;;;;;;;;;0.6;100;103566.9;;;;-74
2023/01/25 10:04:16;;;;;;;;;;;;;;;0.63;100;103556.7;;;;-75
2023/01/25 10:09:38;;;;;;;;;;;;;;;0.69;100;103553.8;;;;-74
2023/01/25 10:20:18;;;;;;;;;;;;;;;0.86;100;103548.4;;;;-74
2023/01/25 10:23:55;;;;;;;;;;;;;;;0.79;100;103548.5;;;;-74
2023/01/25 10:28:58;;;;;;;;;;;;;;;0.82;100;103532.8;;;;-77
2023/01/25 10:33:43;;;;;;;;;;;;;;;0.85;100;103526.2;;;;-75
2023/01/25 10:38:59;;;;;;;;;;;;;;;;;;;;;
2023/01/25 10:49:12;;;;;;;32;11.9;;;;;;;;;;;;;-75
2023/01/25 10:49:43;;;;;;;;;;;;;;;0.94;100;103487.2;;;;-75
2023/01/25 10:52:10;;;;;;;;;;;;;;;;;;;;;
2023/01/25 10:56:24;;;;;;;;;;;;;;;1.05;100;103491.3;;;;-75
2023/01/25 11:01:29;;;;;;;;;;;;;;;1.08;100;103489.9;;;;-75
2023/01/25 11:06:33;;;;;;;;;;;;;;;1.13;100;103479.7;;;;-74
2023/01/25 11:11:40;;;;;;;;;;;;;;;1.17;100;103464.8;;;;-75
2023/01/25 11:16:33;;;;;;;;;;;;;;;1.2;100;103448.5;;;;-76
2023/01/25 11:21:34;;;;;;;;;;;;;;;;;;;;;
2023/01/25 11:26:27;;;;;;;;;;;;;;;1.26;100;103433.6;;;;-76
2023/01/25 11:32:50;;;;;;;;;;;;;;;1.38;100;103410.4;;;;-74
2023/01/25 11:42:31;;;;;;;;;;;;;;;1.31;100;103386.7;;;;-76
2023/01/25 11:47:27;;;;;;;;;;;;;;;1.34;100;103368.4;;;;-75
2023/01/25 11:48:57;;;;;;;36.4;12.6;;;;;;;;;;;;;-74
2023/01/25 11:52:27;;;;;;;;;;;;;;;1.35;100;103355.5;;;;-75
2023/01/25 11:57:30;;;;;;;;;;;;;;;1.37;100;103342.7;;;;-74
2023/01/25 12:02:33;;;;;;;;;;;;;;;1.38;100;103330.8;;;;-75
2023/01/25 12:07:25;;;;;;;;;;;;;;;1.4;100;103315.8;;;;-74
2023/01/25 12:12:32;;;;;;;;;;;;;;;1.47;100;103295.9;;;;-75
2023/01/25 12:17:24;;;;;;;;;;;;;;;1.5;100;103285.8;;;;-75
2023/01/25 12:18:50;;;;;;;38.1;13.8;;;;;;;;;;;;;-75
2023/01/25 12:22:34;;;;;;;;;;;;;;;1.55;100;103280.8;;;;-77
2023/01/25 12:36:49;;;;;;;;;;;;;;;1.77;100;103257;;;;-78
2023/01/25 13:11:50;;;;;;;;;;;;;;;1.75;100;103200.9;;;;-78
2023/01/25 13:16:50;;;;;;;;;;;;;;;1.74;100;103198.7;;;;-76
2023/01/25 13:34:47;;;;;;;;;;;;;;;1.78;100;103176.4;;;;-78
2023/01/25 13:39:53;;;;;;;;;;;;;;;1.75;100;103172.3;;;;-79
2023/01/25 13:44:46;;;;;;;;;;;;;;;1.73;100;103166.9;;;;-76
2023/01/25 13:46:52;;;;;;;;;;;;;;;1.74;100;103150.4;;;;-75
2023/01/25 13:53:34;;;;;;;;;;;;;;;1.82;100;103154.1;;;;-75
2023/01/25 14:02:25;;;;;;;;;;;;;;;1.72;100;103143.1;;;;-76
2023/01/25 14:07:31;;;;;;;;;;;;;;;1.72;100;103140.3;;;;-75
2023/01/25 14:12:17;;;;;;;;;;;;;;;1.73;100;103136.6;;;;-75
2023/01/25 14:17:19;;;;;;;;;;;;;;;1.7;100;103137.2;;;;-75
2023/01/25 14:18:43;;;;;;;50.3;16.8;;;;;;;;;;;;;-75
2023/01/25 14:22:34;;;;;;;;;;;;;;;1.7;100;103132;;;;-76
2023/01/25 14:32:21;;;;;;;;;;;;;;;1.68;100;103125.7;;;;-74
2023/01/25 14:37:19;;;;;;;;;;;;;;;1.66;100;103118.3;;;;-75
2023/01/25 14:42:05;;;;;;;;;;;;;;;1.64;100;103102.5;;;;-75
2023/01/25 14:47:17;;;;;;;;;;;;;;;1.64;100;103083.9;;;;-76
2023/01/25 14:52:24;;;;;;;;;;;;;;;1.65;100;103065.9;;;;-74
2023/01/25 14:57:19;;;;;;;;;;;;;;;1.62;100;103074.3;;;;-75
2023/01/25 15:02:26;;;;;;;;;;;;;;;1.61;100;103069.8;;;;-75
2023/01/25 15:07:06;;;;;;;;;;;;;;;1.63;100;103070.5;;;;-77
2023/01/25 15:12:10;;;;;;;;;;;;;;;1.61;100;103099.7;;;;-75
2023/01/25 15:17:23;;;;;;;;;;;;;;;1.56;100;103101.5;;;;-75
2023/01/25 15:18:49;;;;;;;45.8;15.8;;;;;;;;;;;;;-75
2023/01/25 15:22:23;;;;;;;;;;;;;;;1.56;100;103102.9;;;;-75
2023/01/25 15:27:06;;;;;;;;;;;;;;;1.55;100;103099.3;;;;-75
2023/01/25 15:32:50;;;;;;;;;;;;;;;1.63;100;103084.3;;;;-75
2023/01/25 15:35:45;;;;;;;;;;;;;;;1.51;100;103087.3;;;;-73
2023/01/25 15:40:46;;;;;;;;;;;;;;;1.47;100;103094.2;;;;-75
2023/01/25 15:45:28;;;;;;;;;;;;;;;1.45;100;103095.1;;;;-74
2023/01/25 15:49:54;;;;;;;;;;;;;;;1.58;100;103078.3;;;;-74
2023/01/25 15:52:24;;;;;;;;;;;;;;;;;;;;;
2023/01/25 16:07:12;;;;;;;;;;;;;;;1.37;100;103047;;;;-76
2023/01/25 16:12:09;;;;;;;;;;;;;;;1.33;100;103035.1;;;;-74
2023/01/25 16:18:53;;;;;;;42;14.6;;;;;;;;;;;;;-75
2023/01/25 16:22:24;;;;;;;;;;;;;;;1.27;100;103020.3;;;;-75
2023/01/25 16:27:01;;;;;;;;;;;;;;;1.24;100;103008.7;;;;-79
2023/01/25 16:32:19;;;;;;;;;;;;;;;1.2;100;102991;;;;-75
2023/01/25 16:37:24;;;;;;;;;;;;;;;1.22;100;102970.4;;;;-72
2023/01/25 16:45:02;;;;;;;;;;;;;;;1.13;100;102961.6;;;;-75
2023/01/25 16:47:23;;;;;;;;;;;;;;;1.21;100;102954.6;;;;-75
2023/01/25 16:51:31;;;;;;;;;;;;;;;1.13;100;102938.9;;;;-74
2023/01/25 17:07:07;;;;;;;;;;;;;;;1.1;100;102914.3;;;;-76
2023/01/25 17:16:46;;;;;;;;;;;;;;;0.99;100;102919.5;;;;-76
2023/01/25 17:18:31;;;;;;;42.5;14.3;;;;;;;;;;;;;-75
2023/01/25 17:21:25;;;;;;;;;;;;;;;0.99;100;102914.2;;;;-73
2023/01/25 17:26:29;;;;;;;;;;;;;;;1;100;102915.1;;;;-76
2023/01/25 17:31:43;;;;;;;;;;;;;;;0.98;100;102900.2;;;;-76
2023/01/25 17:35:04;;;;;;;;;;;;;;;1.05;100;102899;;;;-73
2023/01/25 17:39:14;;;;;;;;;;;;;;;0.95;100;102896.6;;;;-77
2023/01/25 17:44:03;;;;;;;;;;;;;;;0.95;100;102892.1;;;;-76
2023/01/25 17:49:18;;;;;;;43.7;14;;;;;;;;;;;;;-76
2023/01/25 17:51:42;;;;;;;;;;;;;;;0.94;100;102873.2;;;;-75
2023/01/25 18:02:05;;;;;;;;;;;;;;;0.88;100;102868.1;;;;-76
2023/01/25 18:14:57;;;;;;;;;;;;;;;0.93;100;102852.4;;;;-76
2023/01/25 18:18:46;;;;;;;38.6;13.4;;;;;;;;;;;;;-76
2023/01/25 18:30:58;;;;;;;;;;;;;;;0.93;100;102832.6;;;;-75
2023/01/25 18:33:49;;;;;;;;;;;;;;;0.83;100;102830.3;;;;-76
2023/01/25 18:47:50;;;;;;;;;;;;;;;0.79;100;102813;;;;-76
2023/01/25 19:48:48;;;;;;;45.1;13.7;;;;;;;;;;;;;-76
2023/01/25 19:50:52;;;;;;;;;;;;;;;0.79;100;102760.5;;;;-74
2023/01/25 19:54:50;;;;;;;;;;;;;;;0.75;100;102776.7;;;;-76
2023/01/25 20:28:00;;;;;;;;;;;;;;;0.74;100;102753.5;;;;-75
2023/01/25 20:49:46;;;;;;;;;;;;;;;0.67;100;102730.1;;;;-75
2023/01/25 20:57:01;;;;;;;;;;;;;;;;;;;;;
2023/01/25 20:59:43;;;;;;;;;;;;;;;0.74;100;102731.8;;;;-75
2023/01/25 21:12:02;;;;;;;;;;;;;;;0.73;100;102727.9;;;;-75
2023/01/25 21:16:50;;;;;;;;;;;;;;;0.74;100;102727.3;;;;-74
2023/01/25 21:21:56;;;;;;;;;;;;;;;0.72;100;102721.6;;;;-75
2023/01/25 21:26:43;;;;;;;;;;;;;;;0.7;100;102718.7;;;;-73
2023/01/25 21:31:45;;;;;;;;;;;;;;;0.7;100;102707.9;;;;-74
2023/01/25 21:36:43;;;;;;;;;;;;;;;0.72;100;102707.3;;;;-74
2023/01/25 21:41:44;;;;;;;;;;;;;;;0.71;100;102704.1;;;;-74
2023/01/25 21:46:47;;;;;;;;;;;;;;;0.7;100;102700.8;;;;-74
2023/01/25 21:51:48;;;;;;;;;;;;;;;0.72;100;102689.3;;;;-74
2023/01/25 21:56:44;;;;;;;;;;;;;;;0.71;100;102681.2;;;;-76
2023/01/25 22:01:45;;;;;;;;;;;;;;;0.69;100;102669.2;;;;-75
2023/01/25 22:06:47;;;;;;;;;;;;;;;0.69;100;102663.6;;;;-74
2023/01/25 22:11:44;;;;;;;;;;;;;;;0.69;100;102660.2;;;;-74
2023/01/25 22:16:45;;;;;;;;;;;;;;;0.68;100;102657.8;;;;-74
2023/01/25 22:18:24;;;;;;;42.3;12.8;;;;;;;;;;;;;-74
2023/01/25 22:21:52;;;;;;;;;;;;;;;0.69;100;102655.7;;;;-75
2023/01/25 22:26:51;;;;;;;;;;;;;;;0.69;100;102656.2;;;;-74
2023/01/25 22:31:44;;;;;;;;;;;;;;;0.67;100;102651.2;;;;-74
2023/01/25 22:36:47;;;;;;;;;;;;;;;0.68;100;102655;;;;-74
2023/01/25 22:41:50;;;;;;;;;;;;;;;0.69;100;102647.2;;;;-75
2023/01/25 22:46:51;;;;;;;;;;;;;;;0.67;100;102642.2;;;;-74
2023/01/25 22:48:24;;;;;;;35.8;11;;;;;;;;;;;;;-74
2023/01/25 22:51:53;;;;;;;;;;;;;;;0.67;100;102644.4;;;;-75
2023/01/25 23:01:43;;;;;;;;;;;;;;;0.68;100;102651.1;;;;-74
2023/01/25 23:06:43;;;;;;;;;;;;;;;0.68;100;102653.3;;;;-73
2023/01/25 23:11:45;;;;;;;;;;;;;;;0.68;100;102654.9;;;;-75
2023/01/25 23:16:45;;;;;;;;;;;;;;;0.68;100;102656.9;;;;-75
2023/01/25 23:21:44;;;;;;;;;;;;;;;0.68;100;102651.7;;;;-74
2023/01/25 23:26:52;;;;;;;;;;;;;;;0.7;100;102649.7;;;;-74
2023/01/25 23:31:44;;;;;;;;;;;;;;;0.69;100;102641.6;;;;-74
2023/01/25 23:36:44;;;;;;;;;;;;;;;0.68;100;102640.6;;;;-74
2023/01/25 23:41:43;;;;;;;;;;;;;;;0.69;100;102635.4;;;;-75
2023/01/25 23:46:44;;;;;;;;;;;;;;;0.7;100;102630.2;;;;-72
2023/01/25 23:48:21;;;;;;;29.1;8.9;;;;;;;;;;;;;-74
2023/01/25 23:51:44;;;;;;;;;;;;;;;0.7;100;102624.9;;;;-73
2023/01/25 23:56:43;;;;;;;;;;;;;;;0.69;100;102612.9;;;;-73
